createdAt,value
2018-04-10T00:01:23.949Z,11.60
2018-04-10T00:03:52.196Z,13.10
2018-04-10T00:06:20.486Z,12.90
2018-04-10T00:08:48.935Z,11.70
2018-04-10T00:11:17.187Z,11.70
2018-04-10T00:13:46.252Z,13.43
2018-04-10T00:16:14.517Z,11.60
2018-04-10T00:18:42.809Z,12.23
2018-04-10T00:21:11.037Z,12.93
2018-04-10T00:23:40.236Z,12.10
2018-04-10T00:26:08.498Z,13.77
2018-04-10T00:28:37.547Z,11.90
2018-04-10T00:31:05.793Z,10.87
2018-04-10T00:33:34.116Z,12.60
2018-04-10T00:36:02.370Z,11.57
2018-04-10T00:38:30.723Z,11.07
2018-04-10T00:40:58.984Z,11.70
2018-04-10T00:43:28.017Z,11.53
2018-04-10T00:45:56.308Z,12.77
2018-04-10T00:48:24.583Z,11.57
2018-04-10T00:50:53.660Z,12.10
2018-04-10T00:53:33.886Z,13.10
2018-04-10T00:56:02.996Z,13.47
2018-04-10T00:58:31.249Z,12.77
2018-04-10T01:01:00.344Z,11.23
2018-04-10T01:03:28.601Z,11.70
2018-04-10T01:05:56.866Z,12.77
2018-04-10T01:08:25.239Z,11.83
2018-04-10T01:10:54.281Z,11.47
2018-04-10T01:13:23.352Z,13.30
2018-04-10T01:15:52.394Z,13.10
2018-04-10T01:18:20.647Z,13.57
2018-04-10T01:20:48.912Z,12.67
2018-04-10T01:23:17.255Z,11.47
2018-04-10T01:25:45.511Z,12.63
2018-04-10T01:28:14.512Z,12.67
2018-04-10T01:30:42.772Z,12.33
2018-04-10T01:33:11.787Z,13.17
2018-04-10T01:35:40.053Z,13.30
2018-04-10T01:38:08.316Z,13.80
2018-04-10T01:40:37.355Z,13.83
2018-04-10T01:43:06.446Z,13.53
2018-04-10T01:45:34.701Z,14.43
2018-04-10T01:48:03.193Z,12.83
2018-04-10T01:50:31.483Z,13.93
2018-04-10T01:52:59.718Z,13.63
2018-04-10T01:55:28.747Z,13.50
2018-04-10T01:57:57.023Z,14.27
2018-04-10T02:00:26.065Z,13.07
2018-04-10T02:02:55.119Z,13.57
2018-04-10T02:05:23.388Z,13.30
2018-04-10T02:07:52.522Z,13.73
2018-04-10T02:10:20.793Z,13.73
2018-04-10T02:12:49.924Z,16.07
2018-04-10T02:15:18.497Z,14.37
2018-04-10T02:17:46.769Z,12.63
2018-04-10T02:20:15.072Z,13.43
2018-04-10T02:22:44.460Z,14.07
2018-04-10T02:25:12.730Z,14.40
2018-04-10T02:27:40.996Z,14.83
2018-04-10T02:30:09.269Z,14.70
2018-04-10T02:32:37.552Z,14.40
2018-04-10T02:35:05.920Z,14.57
2018-04-10T02:37:34.248Z,15.87
2018-04-10T02:40:03.290Z,16.70
2018-04-10T02:42:31.612Z,15.47
2018-04-10T02:45:00.645Z,14.63
2018-04-10T02:47:28.968Z,15.90
2018-04-10T02:49:57.252Z,15.83
2018-04-10T02:52:25.519Z,15.07
2018-04-10T02:54:53.827Z,14.20
2018-04-10T02:57:22.101Z,16.50
2018-04-10T02:59:51.167Z,15.40
2018-04-10T03:02:19.447Z,16.20
2018-04-10T03:04:47.709Z,16.47
2018-04-10T03:07:16.010Z,17.50
2018-04-10T03:09:45.105Z,16.40
2018-04-10T03:12:15.117Z,13.73
2018-04-10T03:14:44.388Z,16.60
2018-04-10T03:17:12.666Z,15.43
2018-04-10T03:19:40.939Z,16.43
2018-04-10T03:22:09.195Z,16.00
2018-04-10T03:24:37.509Z,15.40
2018-04-10T03:27:05.767Z,14.87
2018-04-10T03:29:34.054Z,16.97
2018-04-10T03:32:02.329Z,16.00
2018-04-10T03:34:30.664Z,15.20
2018-04-10T03:36:58.907Z,16.20
2018-04-10T03:39:27.173Z,16.70
2018-04-10T03:41:55.513Z,16.13
2018-04-10T03:44:23.802Z,18.20
2018-04-10T03:46:52.091Z,16.83
2018-04-10T03:49:20.348Z,14.23
2018-04-10T03:51:48.714Z,15.87
2018-04-10T03:54:17.756Z,15.67
2018-04-10T03:56:45.992Z,16.80
2018-04-10T03:59:14.284Z,14.80
2018-04-10T04:01:42.570Z,16.13
2018-04-10T04:04:10.832Z,16.70
2018-04-10T04:06:39.156Z,16.80
2018-04-10T04:09:07.432Z,15.60
2018-04-10T04:11:35.695Z,16.97
2018-04-10T04:14:04.647Z,16.97
2018-04-10T04:16:45.656Z,17.07
2018-04-10T04:19:25.716Z,15.13
2018-04-10T04:22:06.925Z,15.97
2018-04-10T04:24:35.197Z,17.80
2018-04-10T04:27:03.435Z,16.43
2018-04-10T04:29:31.713Z,17.83
2018-04-10T04:32:00.841Z,16.97
2018-04-10T04:34:29.077Z,16.20
2018-04-10T04:36:57.365Z,16.43
2018-04-10T04:39:25.764Z,16.97
2018-04-10T04:41:54.032Z,16.97
2018-04-10T04:44:22.759Z,16.50
2018-04-10T04:46:51.877Z,20.00
2018-04-10T04:49:21.288Z,18.60
2018-04-10T04:51:49.529Z,17.63
2018-04-10T04:54:17.860Z,16.73
2018-04-10T04:56:46.159Z,18.10
2018-04-10T04:59:14.933Z,17.40
2018-04-10T05:01:43.287Z,19.73
2018-04-10T05:04:11.548Z,18.07
2018-04-10T05:06:39.801Z,18.70
2018-04-10T05:09:08.110Z,17.33
2018-04-10T05:11:36.380Z,17.70
2018-04-10T05:14:04.765Z,19.63
2018-04-10T05:16:33.003Z,22.90
2018-04-10T05:19:01.262Z,21.10
2018-04-10T05:21:29.792Z,21.50
2018-04-10T05:23:59.450Z,20.63
2018-04-10T05:26:27.722Z,20.20
2018-04-10T05:28:56.604Z,19.47
2018-04-10T05:31:25.650Z,20.60
2018-04-10T05:33:53.965Z,22.10
2018-04-10T05:36:22.995Z,22.00
2018-04-10T05:38:51.258Z,20.83
2018-04-10T05:41:19.593Z,20.27
2018-04-10T05:43:48.172Z,21.47
2018-04-10T05:46:16.568Z,21.83
2018-04-10T05:48:44.802Z,22.27
2018-04-10T05:51:13.614Z,22.10
2018-04-10T05:53:41.902Z,23.13
2018-04-10T05:56:11.041Z,20.13
2018-04-10T05:58:40.160Z,22.37
2018-04-10T06:01:09.225Z,22.10
2018-04-10T06:03:38.714Z,23.10
2018-04-10T06:06:06.987Z,20.90
2018-04-10T06:08:35.352Z,22.17
2018-04-10T06:11:04.760Z,21.57
2018-04-10T06:13:33.082Z,21.13
2018-04-10T06:16:02.138Z,26.30
2018-04-10T06:18:30.446Z,26.27
2018-04-10T06:20:58.957Z,25.43
2018-04-10T06:23:27.776Z,24.03
2018-04-10T06:25:56.051Z,23.00
2018-04-10T06:28:24.557Z,21.17
2018-04-10T06:30:52.852Z,20.10
2018-04-10T06:33:21.369Z,20.30
2018-04-10T06:35:50.105Z,20.80
2018-04-10T06:38:18.362Z,21.83
2018-04-10T06:40:46.653Z,21.80
2018-04-10T06:43:16.066Z,20.57
2018-04-10T06:45:46.051Z,20.93
2018-04-10T06:48:14.336Z,20.43
2018-04-10T06:50:42.669Z,21.17
2018-04-10T06:53:11.679Z,20.10
2018-04-10T06:55:40.210Z,21.40
2018-04-10T06:58:08.492Z,19.63
2018-04-10T07:00:37.580Z,21.00
2018-04-10T07:03:05.871Z,19.60
2018-04-10T07:05:34.137Z,18.43
2018-04-10T07:08:02.431Z,19.63
2018-04-10T07:10:30.709Z,20.77
2018-04-10T07:12:58.966Z,21.07
2018-04-10T07:15:27.232Z,20.70
2018-04-10T07:17:55.489Z,20.60
2018-04-10T07:20:23.754Z,18.33
2018-04-10T07:22:52.027Z,18.90
2018-04-10T07:25:21.036Z,17.93
2018-04-10T07:27:49.325Z,18.43
2018-04-10T07:30:17.580Z,18.20
2018-04-10T07:32:45.868Z,17.50
2018-04-10T07:35:15.029Z,17.60
2018-04-10T07:37:44.072Z,17.27
2018-04-10T07:40:12.420Z,16.73
2018-04-10T07:42:41.468Z,15.40
2018-04-10T07:45:09.744Z,13.60
2018-04-10T07:47:39.377Z,11.17
2018-04-10T07:50:07.624Z,11.13
2018-04-10T07:52:35.905Z,11.93
2018-04-10T07:55:04.160Z,15.23
2018-04-10T07:57:33.250Z,15.10
2018-04-10T08:00:01.523Z,15.30
2018-04-10T08:02:30.566Z,14.87
2018-04-10T08:04:58.780Z,13.27
2018-04-10T08:07:27.817Z,14.60
2018-04-10T08:09:56.077Z,12.40
2018-04-10T08:12:24.368Z,11.30
2018-04-10T08:14:52.625Z,8.50
2018-04-10T08:17:20.908Z,7.30
2018-04-10T08:19:49.215Z,7.80
2018-04-10T08:22:17.454Z,7.10
2018-04-10T08:24:45.701Z,6.63
2018-04-10T08:27:13.975Z,6.00
2018-04-10T08:29:42.230Z,6.00
2018-04-10T08:32:10.504Z,5.87
2018-04-10T08:34:38.790Z,7.47
2018-04-10T08:37:07.534Z,6.33
2018-04-10T08:39:35.813Z,6.27
2018-04-10T08:42:04.131Z,5.50
2018-04-10T08:44:32.560Z,6.50
2018-04-10T08:47:00.845Z,6.00
2018-04-10T08:49:29.108Z,6.07
2018-04-10T08:51:58.121Z,6.40
2018-04-10T08:54:26.417Z,6.23
2018-04-10T08:56:54.663Z,6.93
2018-04-10T08:59:22.921Z,7.60
2018-04-10T09:01:51.960Z,8.10
2018-04-10T09:04:20.604Z,6.57
2018-04-10T09:06:49.622Z,8.60
2018-04-10T09:09:17.956Z,7.80
2018-04-10T09:11:46.214Z,7.20
2018-04-10T09:14:14.533Z,5.63
2018-04-10T09:16:42.801Z,5.03
2018-04-10T09:19:11.032Z,3.80
2018-04-10T09:21:39.322Z,4.00
2018-04-10T09:24:09.245Z,4.23
2018-04-10T09:26:37.489Z,5.03
2018-04-10T09:29:05.791Z,4.03
2018-04-10T09:31:34.812Z,3.97
2018-04-10T09:34:03.068Z,4.40
2018-04-10T09:36:31.370Z,4.60
2018-04-10T09:38:59.602Z,4.37
2018-04-10T09:41:27.876Z,3.60
2018-04-10T09:43:56.138Z,3.33
2018-04-10T09:46:24.427Z,3.60
2018-04-10T09:48:52.702Z,2.90
2018-04-10T09:51:21.700Z,3.00
2018-04-10T09:53:50.568Z,3.10
2018-04-10T09:56:19.698Z,2.80
2018-04-10T09:58:47.981Z,2.37
2018-04-10T10:01:16.205Z,3.77
2018-04-10T10:03:45.225Z,2.10
2018-04-10T10:06:14.382Z,2.33
2018-04-10T10:08:42.653Z,2.90
2018-04-10T10:11:10.949Z,2.47
2018-04-10T10:13:40.218Z,3.23
2018-04-10T10:16:09.429Z,3.57
2018-04-10T10:18:37.703Z,4.83
2018-04-10T10:21:05.973Z,5.47
2018-04-10T10:23:35.052Z,4.30
2018-04-10T10:26:03.348Z,6.20
2018-04-10T10:28:31.607Z,5.40
2018-04-10T10:30:59.853Z,4.87
2018-04-10T10:33:28.944Z,5.93
2018-04-10T10:35:57.965Z,5.67
2018-04-10T10:38:26.285Z,6.23
2018-04-10T10:40:54.541Z,5.57
2018-04-10T10:43:22.811Z,5.37
2018-04-10T10:45:51.075Z,6.00
2018-04-10T10:48:19.721Z,5.23
2018-04-10T10:50:47.971Z,5.27
2018-04-10T10:53:16.689Z,5.20
2018-04-10T10:55:44.925Z,4.43
2018-04-10T10:58:13.788Z,6.50
2018-04-10T11:00:42.139Z,5.07
2018-04-10T11:03:10.413Z,5.03
2018-04-10T11:05:38.685Z,3.83
2018-04-10T11:08:07.839Z,5.53
2018-04-10T11:10:36.120Z,3.80
2018-04-10T11:13:04.352Z,5.47
2018-04-10T11:15:33.391Z,4.30
2018-04-10T11:18:03.246Z,4.47
2018-04-10T11:20:31.602Z,4.60
2018-04-10T11:22:59.874Z,4.50
2018-04-10T11:25:28.359Z,4.17
2018-04-10T11:27:56.661Z,4.10
2018-04-10T11:30:24.913Z,4.90
2018-04-10T11:32:53.175Z,3.90
2018-04-10T11:35:21.433Z,5.27
2018-04-10T11:37:49.682Z,5.03
2018-04-10T11:40:17.952Z,4.80
2018-04-10T11:42:46.225Z,5.20
2018-04-10T11:45:14.643Z,6.47
2018-04-10T11:47:44.011Z,5.17
2018-04-10T11:50:14.133Z,5.87
2018-04-10T11:52:42.891Z,6.27
2018-04-10T11:55:12.473Z,6.27
2018-04-10T11:57:42.655Z,6.50
2018-04-10T12:00:11.703Z,7.20
2018-04-10T12:02:39.980Z,6.33
2018-04-10T12:05:08.257Z,6.80
2018-04-10T12:07:36.627Z,6.27
2018-04-10T12:10:04.893Z,6.97
2018-04-10T12:12:33.152Z,7.90
2018-04-10T12:15:10.409Z,6.27
2018-04-10T12:17:39.020Z,6.33
2018-04-10T12:20:08.641Z,7.07
2018-04-10T12:22:36.957Z,7.40
2018-04-10T12:25:05.410Z,6.87
2018-04-10T12:27:34.417Z,7.40
2018-04-10T12:30:02.689Z,7.80
2018-04-10T12:32:31.017Z,9.20
2018-04-10T12:35:00.416Z,7.10
2018-04-10T12:37:28.749Z,6.60
2018-04-10T12:39:57.845Z,7.50
2018-04-10T12:42:26.294Z,6.87
2018-04-10T12:44:56.973Z,8.33
2018-04-10T12:47:26.212Z,7.10
2018-04-10T12:49:55.901Z,8.90
2018-04-10T12:52:24.190Z,8.63
2018-04-10T12:54:52.469Z,8.40
2018-04-10T12:57:20.848Z,7.27
2018-04-10T12:59:49.901Z,7.60
2018-04-10T13:02:19.031Z,11.33
2018-04-10T13:04:47.351Z,9.63
2018-04-10T13:07:15.635Z,11.13
2018-04-10T13:09:44.708Z,12.80
2018-04-10T13:12:14.480Z,13.27
2018-04-10T13:14:43.415Z,15.90
2018-04-10T13:17:11.816Z,16.30
2018-04-10T13:19:40.104Z,18.03
2018-04-10T13:22:08.371Z,15.47
2018-04-10T13:24:37.413Z,18.20
2018-04-10T13:27:05.679Z,17.70
2018-04-10T13:29:34.009Z,21.67
2018-04-10T13:32:02.282Z,22.93
2018-04-10T13:34:30.616Z,22.20
2018-04-10T13:36:58.927Z,23.10
2018-04-10T13:39:27.201Z,21.67
2018-04-10T13:41:55.487Z,22.30
2018-04-10T13:44:23.749Z,23.17
2018-04-10T13:46:52.204Z,20.40
2018-04-10T13:49:20.510Z,21.73
2018-04-10T13:51:48.780Z,23.13
2018-04-10T13:54:17.666Z,25.17
2018-04-10T13:56:46.010Z,25.90
2018-04-10T13:59:14.419Z,25.20
2018-04-10T14:01:44.257Z,24.87
2018-04-10T14:04:12.554Z,25.20
2018-04-10T14:06:40.866Z,26.17
2018-04-10T14:09:09.940Z,28.47
2018-04-10T14:11:38.969Z,29.37
2018-04-10T14:14:09.940Z,30.03
2018-04-10T14:16:38.274Z,27.90
2018-04-10T14:19:06.559Z,28.40
2018-04-10T14:21:34.838Z,29.40
2018-04-10T14:24:03.533Z,30.03
2018-04-10T14:26:32.704Z,30.73
2018-04-10T14:29:01.745Z,29.97
2018-04-10T14:31:32.078Z,27.47
2018-04-10T14:34:00.341Z,29.17
2018-04-10T14:36:28.636Z,28.70
2018-04-10T14:38:56.868Z,28.23
2018-04-10T14:41:25.922Z,28.10
2018-04-10T14:43:54.189Z,29.93
2018-04-10T14:46:22.511Z,28.90
2018-04-10T14:48:51.580Z,28.17
2018-04-10T14:51:21.110Z,29.17
2018-04-10T14:53:50.529Z,27.43
2018-04-10T14:56:18.851Z,29.30
2018-04-10T14:58:48.454Z,28.00
2018-04-10T15:01:16.785Z,27.83
2018-04-10T15:10:32.144Z,32.17
2018-04-10T15:13:00.420Z,35.10
2018-04-10T15:15:29.477Z,32.47
2018-04-10T15:17:59.262Z,33.80
2018-04-10T15:20:28.368Z,33.80
2018-04-10T15:22:56.625Z,35.57
2018-04-10T15:25:24.924Z,35.73
2018-04-10T15:27:53.227Z,36.07
2018-04-10T15:30:21.500Z,33.40
2018-04-10T15:32:49.855Z,38.47
2018-04-10T15:35:18.164Z,37.30
2018-04-10T15:37:47.230Z,36.30
2018-04-10T15:40:15.458Z,38.70
2018-04-10T15:42:43.889Z,37.03
2018-04-10T15:45:12.309Z,37.03
2018-04-10T15:47:42.228Z,39.90
2018-04-10T15:50:12.388Z,39.33
2018-04-10T15:52:40.726Z,38.60
2018-04-10T15:55:09.095Z,41.17
2018-04-10T15:57:38.704Z,40.30
2018-04-10T16:00:07.310Z,39.60
2018-04-10T16:02:36.671Z,39.40
2018-04-10T16:05:05.717Z,39.43
2018-04-10T16:07:34.472Z,39.80
2018-04-10T16:10:02.786Z,42.10
2018-04-10T16:12:31.379Z,39.70
2018-04-10T16:14:59.656Z,42.87
2018-04-10T16:17:27.955Z,40.13
2018-04-10T16:19:56.217Z,40.40
2018-04-10T16:22:24.464Z,40.87
2018-04-10T16:24:54.245Z,44.20
2018-04-10T16:27:23.121Z,41.50
2018-04-10T16:29:51.383Z,43.03
2018-04-10T16:32:20.316Z,41.90
2018-04-10T16:34:49.244Z,42.87
2018-04-10T16:37:18.331Z,46.03
2018-04-10T16:39:47.436Z,49.07
2018-04-10T16:42:20.951Z,45.73
2018-04-10T16:44:49.252Z,48.07
2018-04-10T16:47:17.998Z,46.37
2018-04-10T16:49:46.408Z,47.30
2018-04-10T16:52:14.832Z,46.30
2018-04-10T16:54:43.916Z,47.03
2018-04-10T16:57:13.058Z,43.43
2018-04-10T16:59:41.390Z,48.50
2018-04-10T17:02:09.679Z,43.77
2018-04-10T17:04:38.685Z,46.43
2018-04-10T17:07:07.033Z,45.87
2018-04-10T17:09:36.226Z,45.93
2018-04-10T17:12:05.058Z,46.13
2018-04-10T17:14:33.398Z,49.73
2018-04-10T17:17:03.567Z,45.67
2018-04-10T17:19:32.420Z,47.83
2018-04-10T17:22:00.789Z,46.27
2018-04-10T17:24:29.108Z,46.90
2018-04-10T17:26:58.805Z,46.73
2018-04-10T17:29:27.059Z,45.70
2018-04-10T17:31:55.348Z,43.60
2018-04-10T17:34:24.430Z,43.83
2018-04-10T17:36:52.819Z,44.43
2018-04-10T17:39:22.358Z,45.87
2018-04-10T17:41:50.792Z,44.33
2018-04-10T17:44:22.048Z,46.73
2018-04-10T17:46:50.363Z,45.50
2018-04-10T17:49:19.609Z,45.43
2018-04-10T17:51:54.768Z,44.33
2018-04-10T17:54:23.383Z,46.33
2018-04-10T17:56:52.424Z,43.93
2018-04-10T17:59:21.498Z,46.33
2018-04-10T18:01:49.802Z,45.00
2018-04-10T18:04:18.824Z,47.03
2018-04-10T18:06:47.156Z,45.00
2018-04-10T18:09:15.446Z,44.93
2018-04-10T18:11:43.760Z,43.27
2018-04-10T18:14:12.067Z,44.13
2018-04-10T18:16:41.152Z,42.50
2018-04-10T18:19:10.198Z,43.60
2018-04-10T18:21:38.567Z,41.67
2018-04-10T18:24:07.532Z,43.97
2018-04-10T18:26:36.594Z,43.33
2018-04-10T18:29:04.865Z,42.57
2018-04-10T18:31:34.007Z,42.27
2018-04-10T18:34:03.127Z,41.67
2018-04-10T18:36:31.418Z,41.53
2018-04-10T18:38:59.976Z,42.30
2018-04-10T18:41:28.515Z,44.20
2018-04-10T18:43:57.523Z,44.43
2018-04-10T18:46:26.735Z,43.40
2018-04-10T18:48:55.366Z,45.20
2018-04-10T18:51:23.726Z,46.07
2018-04-10T18:53:53.092Z,43.13
2018-04-10T18:56:21.433Z,45.70
2018-04-10T18:58:49.719Z,44.40
2018-04-10T19:01:19.032Z,30.60
2018-04-10T19:03:47.332Z,26.27
2018-04-10T19:06:15.762Z,25.43
2018-04-10T19:08:45.668Z,26.17
2018-04-10T19:11:15.242Z,24.73
2018-04-10T19:13:43.977Z,26.80
2018-04-10T19:16:15.018Z,21.97
2018-04-10T19:18:44.094Z,19.93
2018-04-10T19:21:12.493Z,14.40
2018-04-10T19:23:40.919Z,13.10
2018-04-10T19:26:09.334Z,13.07
2018-04-10T19:28:37.740Z,13.27
2018-04-10T19:31:06.303Z,11.00
2018-04-10T19:33:34.622Z,9.40
2018-04-10T19:36:02.921Z,10.00
2018-04-10T19:38:31.271Z,8.10
2018-04-10T19:40:59.660Z,6.90
2018-04-10T19:43:28.016Z,7.30
2018-04-10T19:45:56.348Z,7.10
2018-04-10T19:48:24.916Z,7.57
2018-04-10T19:50:53.996Z,7.70
2018-04-10T19:53:24.586Z,7.60
2018-04-10T19:55:53.807Z,8.00
2018-04-10T19:58:22.085Z,7.43
2018-04-10T20:00:50.775Z,6.33
2018-04-10T20:03:19.950Z,7.03
2018-04-10T20:05:49.196Z,7.37
2018-04-10T20:08:19.057Z,7.30
2018-04-10T20:10:50.116Z,7.13
2018-04-10T20:13:21.979Z,7.97
2018-04-10T20:15:50.578Z,7.50
2018-04-10T20:18:18.995Z,8.33
2018-04-10T20:20:47.460Z,8.07
2018-04-10T20:23:15.785Z,8.40
2018-04-10T20:25:44.839Z,8.37
2018-04-10T20:28:14.193Z,8.67
2018-04-10T20:30:42.844Z,9.40
2018-04-10T20:33:11.101Z,8.93
2018-04-10T20:35:39.426Z,8.50
2018-04-10T20:38:08.645Z,10.00
2018-04-10T20:40:37.932Z,9.90
2018-04-10T20:43:06.303Z,10.80
2018-04-10T20:45:35.062Z,9.37
2018-04-10T20:48:03.372Z,10.70
2018-04-10T20:50:32.452Z,11.90
2018-04-10T20:53:00.748Z,10.93
2018-04-10T20:55:29.060Z,13.27
2018-04-10T20:57:58.058Z,15.17
2018-04-10T21:00:26.441Z,15.73
2018-04-10T21:02:55.603Z,14.63
2018-04-10T21:05:24.216Z,14.70
2018-04-10T21:07:52.449Z,18.10
2018-04-10T21:10:21.506Z,14.83
2018-04-10T21:12:49.872Z,13.17
2018-04-10T21:15:18.182Z,14.27
2018-04-10T21:17:46.467Z,12.30
2018-04-10T21:20:14.749Z,12.73
2018-04-10T21:22:43.033Z,12.33
2018-04-10T21:25:11.265Z,12.20
2018-04-10T21:27:39.579Z,11.50
2018-04-10T21:30:08.850Z,11.33
2018-04-10T21:32:37.100Z,11.20
2018-04-10T21:35:06.689Z,10.90
2018-04-10T21:37:35.709Z,11.07
2018-04-10T21:40:04.043Z,11.60
2018-04-10T21:42:38.745Z,12.70
2018-04-10T21:45:07.022Z,10.73
2018-04-10T21:47:35.343Z,12.40
2018-04-10T21:50:04.385Z,10.37
2018-04-10T21:52:32.704Z,10.27
2018-04-10T21:55:02.285Z,10.23
2018-04-10T21:57:30.579Z,10.80
2018-04-10T21:59:59.199Z,12.20
2018-04-10T22:02:27.435Z,11.60
2018-04-10T22:04:56.527Z,13.20
2018-04-10T22:07:24.780Z,13.03
2018-04-10T22:09:53.962Z,13.20
2018-04-10T22:12:22.203Z,13.70
2018-04-10T22:14:51.269Z,12.90
2018-04-10T22:17:19.512Z,12.90
2018-04-10T22:19:47.771Z,12.67
2018-04-10T22:22:16.048Z,13.83
2018-04-10T22:24:45.107Z,13.17
2018-04-10T22:27:13.427Z,12.13
2018-04-10T22:29:42.171Z,11.70
2018-04-10T22:32:10.449Z,11.50
2018-04-10T22:34:38.810Z,13.93
2018-04-10T22:37:07.036Z,12.87
2018-04-10T22:39:35.317Z,13.77
2018-04-10T22:42:03.642Z,13.93
2018-04-10T22:44:31.912Z,13.30
2018-04-10T22:47:00.158Z,11.70
2018-04-10T22:49:28.451Z,14.20
2018-04-10T22:51:57.497Z,13.23
2018-04-10T22:54:28.285Z,12.97
2018-04-10T22:56:56.579Z,11.37
2018-04-10T22:59:24.859Z,13.30
2018-04-10T23:01:53.156Z,12.63
2018-04-10T23:04:22.185Z,12.97
2018-04-10T23:06:50.446Z,13.50
2018-04-10T23:09:18.710Z,13.23
2018-04-10T23:11:46.989Z,13.97
2018-04-10T23:14:16.150Z,13.90
2018-04-10T23:16:44.430Z,13.50
2018-04-10T23:19:12.750Z,14.00
2018-04-10T23:21:41.812Z,14.20
2018-04-10T23:24:10.085Z,13.50
2018-04-10T23:26:38.348Z,13.03
2018-04-10T23:29:07.364Z,13.90
2018-04-10T23:31:35.658Z,13.73
2018-04-10T23:34:03.901Z,13.07
2018-04-10T23:36:32.193Z,12.77
2018-04-10T23:39:00.450Z,14.13
2018-04-10T23:41:28.719Z,11.80
2018-04-10T23:43:57.728Z,13.83
2018-04-10T23:46:25.986Z,12.57
2018-04-10T23:48:55.013Z,13.00
2018-04-10T23:51:23.298Z,14.07
2018-04-10T23:53:51.549Z,15.83
2018-04-10T23:56:20.577Z,11.63
2018-04-10T23:58:48.868Z,13.67
